MiSS Sarah — WDE9595 — position and weather

sailwx.info

Track history (hours):
 
Tides and Currents Weather Stations Pressure Air Temp Water Temp Dewpoint Dewpoint Depression Visibility Wind Speed Wind Dir Waves Ship Positions

MiSS Sarah

Owner: Higman Barge Lines, Inc, Orange, TX. More information available from US FCC via Universal Licensing System and Coast Guard Vessel Documentation Center.

Last reported at 2017-Nov-19 21:02 UTC. Time now 2017-Nov-21 13:42 UTC.
Position N 29°46' W 095°05'.

Length 24 m; draft 9 m.

Type: Towing. MMSI: 367419040.

Date/timePositionNaut miles runAvg speedWind from/ knotsBaromVisibWave heightAir tempDewpointWater temp
2017-Nov-19 21:02N 29°46' W 095°05'0 4.4
2017-Nov-19 21:00N 29°46' W 095°05'5 1.7
2017-Nov-19 17:53N 29°45' W 095°11'2 4.9
2017-Nov-19 17:28N 29°44' W 095°09'3 6.2
2017-Nov-19 16:54N 29°46' W 095°05'0 0.4
2017-Nov-19 16:25N 29°46' W 095°05'0 0.6
2017-Nov-19 15:55N 29°46' W 095°05'2 0.1
2017-Nov-18 15:31N 29°44' W 095°07'0 7.1
2017-Nov-18 15:30N 29°44' W 095°07'3 1.2
2017-Nov-18 13:04N 29°47' W 095°05'0 0.7
2017-Nov-18 12:54N 29°46' W 095°05'0 0.0
2017-Nov-18 01:37N 29°46' W 095°05'0 0.1
2017-Nov-18 01:14N 29°46' W 095°05'0 0.0
2017-Nov-18 01:00N 29°46' W 095°05'0 0.0
2017-Nov-18 00:29N 29°46' W 095°05'0 0.0
2017-Nov-17 23:55N 29°46' W 095°05'0 0.0
2017-Nov-17 23:28N 29°46' W 095°05'0 0.0
2017-Nov-17 22:51N 29°46' W 095°05'0 0.0
2017-Nov-17 22:29N 29°46' W 095°05'0 0.0
2017-Nov-17 21:59N 29°46' W 095°05'0 0.0
2017-Nov-17 21:27N 29°46' W 095°05'0 0.0
2017-Nov-17 20:48N 29°46' W 095°05'0 0.0
2017-Nov-17 20:22N 29°46' W 095°05'0 0.0
2017-Nov-17 20:00N 29°46' W 095°05'0 0.0
2017-Nov-17 19:19N 29°46' W 095°05'0 0.0
2017-Nov-17 18:46N 29°46' W 095°05'0 0.1
2017-Nov-17 17:48N 29°47' W 095°05'0 0.0
2017-Nov-17 17:28N 29°47' W 095°05'0 0.3
2017-Nov-17 17:00N 29°46' W 095°05'0 0.2
2017-Nov-17 16:28N 29°47' W 095°05'0 0.0
2017-Nov-17 15:59N 29°47' W 095°05'0 0.0
2017-Nov-17 15:30N 29°47' W 095°05'0 0.0
2017-Nov-17 14:58N 29°47' W 095°05'0 0.0
2017-Nov-17 14:23N 29°47' W 095°05'0 0.0
2017-Nov-17 13:58N 29°47' W 095°05'0 0.0
2017-Nov-17 13:28N 29°47' W 095°05'0 0.0
2017-Nov-17 12:57N 29°47' W 095°05'0 0.0
2017-Nov-17 12:06N 29°47' W 095°05'0 0.0
2017-Nov-17 11:59N 29°47' W 095°05'0 0.0
2017-Nov-17 11:29N 29°47' W 095°05'0 0.0
2017-Nov-17 10:55N 29°47' W 095°05'0 0.0
2017-Nov-17 10:23N 29°47' W 095°05'0 0.0
2017-Nov-17 09:59N 29°47' W 095°05'0 0.0
2017-Nov-17 09:30N 29°47' W 095°05'0 0.0
2017-Nov-17 08:58N 29°47' W 095°05'0 0.0
2017-Nov-17 08:30N 29°47' W 095°05'0 0.0
2017-Nov-17 07:53N 29°47' W 095°05'0 0.0
2017-Nov-17 07:26N 29°47' W 095°05'0 0.0
2017-Nov-17 06:59N 29°47' W 095°05'0 0.0
2017-Nov-17 06:26N 29°47' W 095°05'0 0.0
2017-Nov-17 06:00N 29°47' W 095°05'0 0.0
2017-Nov-17 05:27N 29°47' W 095°05'0 0.0
2017-Nov-17 04:58N 29°47' W 095°05'0 0.0
2017-Nov-17 04:29N 29°47' W 095°05'0 0.0
2017-Nov-17 03:57N 29°47' W 095°05'0 0.0
2017-Nov-17 03:28N 29°47' W 095°05'0 0.0
2017-Nov-17 02:59N 29°47' W 095°05'0 0.0
2017-Nov-17 02:20N 29°47' W 095°05'0 0.0
2017-Nov-17 01:39N 29°47' W 095°05'0 0.0
2017-Nov-17 01:29N 29°47' W 095°05'0 0.1
2017-Nov-17 01:00N 29°47' W 095°05'0 0.0
2017-Nov-17 00:29N 29°47' W 095°05'0 0.0
2017-Nov-17 00:00N 29°47' W 095°05'0 0.0
2017-Nov-16 23:30N 29°47' W 095°05'0 0.0
2017-Nov-16 22:57N 29°47' W 095°05'0 0.0
2017-Nov-16 22:30N 29°47' W 095°05'0 0.0
2017-Nov-16 22:00N 29°47' W 095°05'0 0.0
2017-Nov-16 21:28N 29°47' W 095°05'0 0.0
2017-Nov-16 20:54N 29°47' W 095°05'0 0.0
2017-Nov-16 20:30N 29°47' W 095°05'0 0.0
2017-Nov-16 20:00N 29°47' W 095°05'0 0.0
2017-Nov-16 19:30N 29°47' W 095°05'0 0.0
2017-Nov-16 19:00N 29°47' W 095°05'0 0.0
2017-Nov-16 18:28N 29°47' W 095°05'0 0.0
2017-Nov-16 18:00N 29°47' W 095°05'0 0.0
2017-Nov-16 17:30N 29°47' W 095°05'0 0.0
2017-Nov-16 17:00N 29°47' W 095°05'0 0.0
2017-Nov-16 16:30N 29°47' W 095°05'0 0.0
2017-Nov-16 15:58N 29°47' W 095°05'0 0.0
2017-Nov-16 15:29N 29°47' W 095°05'0 0.0
2017-Nov-16 15:00N 29°47' W 095°05'0 0.0
2017-Nov-16 14:30N 29°47' W 095°05'0 0.0
2017-Nov-16 14:00N 29°47' W 095°05'0 0.0
2017-Nov-16 13:30N 29°47' W 095°05'0 0.0
2017-Nov-16 13:00N 29°47' W 095°05'0 0.0
2017-Nov-16 12:30N 29°47' W 095°05'0 0.0
2017-Nov-16 12:00N 29°47' W 095°05'0 0.0
2017-Nov-16 11:30N 29°47' W 095°05'0 0.0
2017-Nov-16 11:00N 29°47' W 095°05'0 0.0
2017-Nov-16 10:30N 29°47' W 095°05'0 0.0
2017-Nov-16 10:00N 29°47' W 095°05'0 0.0
2017-Nov-16 09:30N 29°47' W 095°05'0 0.0
2017-Nov-16 09:00N 29°47' W 095°05'0 0.0
2017-Nov-16 08:30N 29°47' W 095°05'0 0.0
2017-Nov-16 08:00N 29°47' W 095°05'0 0.0
2017-Nov-16 07:30N 29°47' W 095°05'0 0.0
2017-Nov-16 06:59N 29°47' W 095°05'0 0.0
2017-Nov-16 06:30N 29°47' W 095°05'0 0.0
2017-Nov-16 06:00N 29°47' W 095°05'0 0.0
2017-Nov-16 05:30N 29°47' W 095°05'0 0.0
2017-Nov-16 05:00N 29°47' W 095°05'0 0.0
2017-Nov-16 04:30N 29°47' W 095°05'0 0.0
2017-Nov-16 04:00N 29°47' W 095°05'0 0.0
2017-Nov-16 03:30N 29°47' W 095°05'0 0.0
2017-Nov-16 03:00N 29°47' W 095°05'0 0.0
2017-Nov-16 02:30N 29°47' W 095°05'0 0.0
2017-Nov-16 02:00N 29°47' W 095°05'0 0.0
2017-Nov-16 01:30N 29°47' W 095°05'0 0.0
2017-Nov-16 01:00N 29°47' W 095°05'0 0.0
2017-Nov-16 00:30N 29°47' W 095°05'0 0.0
2017-Nov-16 00:00N 29°47' W 095°05'0 0.0
2017-Nov-15 23:30N 29°47' W 095°05'0 0.0
2017-Nov-15 23:00N 29°47' W 095°05'0 0.0
2017-Nov-15 22:30N 29°47' W 095°05'0 0.0
2017-Nov-15 22:00N 29°47' W 095°05'0 0.0
2017-Nov-15 21:30N 29°47' W 095°05'0 0.0
2017-Nov-15 20:57N 29°47' W 095°05'0 0.0
2017-Nov-15 20:30N 29°47' W 095°05'0 0.0
2017-Nov-15 19:55N 29°47' W 095°05'0 0.0
2017-Nov-15 19:29N 29°47' W 095°05'0 0.0
2017-Nov-15 19:00N 29°47' W 095°05'0 0.0
2017-Nov-15 18:16N 29°47' W 095°05'0 0.0
2017-Nov-15 18:00N 29°47' W 095°05'0 0.0
2017-Nov-15 17:30N 29°47' W 095°05'0 0.0
2017-Nov-15 17:00N 29°47' W 095°05'0 0.0
2017-Nov-15 16:30N 29°47' W 095°05'0 0.0
2017-Nov-15 16:00N 29°47' W 095°05'0 0.0
2017-Nov-15 15:30N 29°47' W 095°05'0 0.0
2017-Nov-15 15:00N 29°47' W 095°05'0 0.0
2017-Nov-15 14:30N 29°47' W 095°05'0 0.0
2017-Nov-15 14:00N 29°47' W 095°05'0 0.0
2017-Nov-15 13:29N 29°47' W 095°05'0 0.0
2017-Nov-15 13:00N 29°47' W 095°05'0 0.0
2017-Nov-15 12:30N 29°47' W 095°05'0 0.0
2017-Nov-15 12:00N 29°47' W 095°05'0 0.0
2017-Nov-15 11:30N 29°47' W 095°05'0 0.0
2017-Nov-15 11:00N 29°47' W 095°05'0 0.0
2017-Nov-15 10:30N 29°47' W 095°05'0 0.0
2017-Nov-15 10:00N 29°47' W 095°05'0 0.0
2017-Nov-15 09:30N 29°47' W 095°05'0 0.0
2017-Nov-15 09:00N 29°47' W 095°05'0 0.1
2017-Nov-15 08:26N 29°47' W 095°05'2 3.9
2017-Nov-15 08:00N 29°45' W 095°06'3 5.4
2017-Nov-15 07:30N 29°44' W 095°09'3 5.2
2017-Nov-15 07:00N 29°45' W 095°12'2 4.5
2017-Nov-15 06:31N 29°44' W 095°14'0 0.1
2017-Nov-15 06:00N 29°44' W 095°14'0 0.0
2017-Nov-15 05:19N 29°44' W 095°14'0 0.0
2017-Nov-15 04:59N 29°44' W 095°14'0 0.0
2017-Nov-15 04:30N 29°44' W 095°14'0 0.0
2017-Nov-15 04:00N 29°44' W 095°14'0 0.0
2017-Nov-15 03:30N 29°44' W 095°14'0 0.0
2017-Nov-15 03:00N 29°44' W 095°14'0 0.0
2017-Nov-15 02:30N 29°44' W 095°14'0 0.0
2017-Nov-15 02:00N 29°44' W 095°14'0 0.0
2017-Nov-15 01:29N 29°44' W 095°14'0 0.0
2017-Nov-15 01:00N 29°44' W 095°14'0 0.0
2017-Nov-15 00:20N 29°44' W 095°14'0 0.0
2017-Nov-14 23:57N 29°44' W 095°14'0 0.0
2017-Nov-14 23:29N 29°44' W 095°14'0 0.0
2017-Nov-14 15:09N 29°44' W 095°14'0 0.0
2017-Nov-14 14:45N 29°44' W 095°14'0 0.0
2017-Nov-14 14:24N 29°44' W 095°14'0 0.0
2017-Nov-14 13:47N 29°44' W 095°14'0 0.0
2017-Nov-14 13:30N 29°44' W 095°14'0 0.0
2017-Nov-14 13:00N 29°44' W 095°14'0 0.0
2017-Nov-14 12:30N 29°44' W 095°14'0 0.0
2017-Nov-14 12:00N 29°44' W 095°14'0 0.0
2017-Nov-14 11:30N 29°44' W 095°14'0 0.0
2017-Nov-14 11:00N 29°44' W 095°14'0 0.0
2017-Nov-14 10:30N 29°44' W 095°14'0 0.0
2017-Nov-14 10:00N 29°44' W 095°14'0 0.0
2017-Nov-14 09:30N 29°44' W 095°14'0 0.0
2017-Nov-14 09:00N 29°44' W 095°14'0 0.0
2017-Nov-14 08:30N 29°44' W 095°14'0 0.0
2017-Nov-14 08:00N 29°44' W 095°14'0 0.0
2017-Nov-14 07:30N 29°44' W 095°14'0 0.0
2017-Nov-14 07:00N 29°44' W 095°14'0 0.0
2017-Nov-14 06:30N 29°44' W 095°14'0 0.0
2017-Nov-14 06:00N 29°44' W 095°14'0 0.0
2017-Nov-14 05:30N 29°44' W 095°14'0 0.0
2017-Nov-14 05:00N 29°44' W 095°14'0 0.0
2017-Nov-14 04:30N 29°44' W 095°14'0 0.0
2017-Nov-14 04:01N 29°44' W 095°14'0 0.0
2017-Nov-14 03:30N 29°44' W 095°14'0 0.0
2017-Nov-14 03:00N 29°44' W 095°14'1 1.5
2017-Nov-14 02:30N 29°43' W 095°13'2 4.5
2017-Nov-14 01:58N 29°45' W 095°11'2 4.6
2017-Nov-14 01:30N 29°44' W 095°08'3 4.6
2017-Nov-14 00:53N 29°46' W 095°06'2 1.4
2017-Nov-13 23:47N 29°47' W 095°06'0 0.0
2017-Nov-13 01:59N 29°47' W 095°05'  
2017-Nov-10 19:14N 29°47' W 095°05'3 2.6
2017-Nov-10 18:17N 29°45' W 095°06'1 1.8
2017-Nov-10 17:28N 29°44' W 095°08'3 6.1
2017-Nov-10 16:59N 29°46' W 095°05'2 3.1
2017-Nov-10 16:30N 29°45' W 095°07'0 0.0
2017-Nov-10 15:59N 29°45' W 095°07'0 0.0
2017-Nov-10 15:28N 29°45' W 095°07'0 0.0
2017-Nov-10 14:52N 29°45' W 095°07'0 0.0
2017-Nov-10 14:19N 29°45' W 095°07'0 0.0
2017-Nov-10 13:47N 29°45' W 095°07'0 0.0
2017-Nov-10 12:19N 29°45' W 095°06'0 0.0
2017-Nov-10 06:59N 29°45' W 095°06'1 1.9
2017-Nov-10 06:25N 29°45' W 095°06'3 7.0
2017-Nov-10 06:00N 29°44' W 095°09'1 2.2
2017-Nov-10 05:29N 29°45' W 095°10'1 1.9
2017-Nov-10 05:00N 29°44' W 095°09'2 3.9
2017-Nov-10 04:30N 29°44' W 095°07'3 4.8
2017-Nov-10 03:58N 29°46' W 095°05'0 0.1
2017-Nov-10 03:30N 29°46' W 095°05'1 0.3
2017-Nov-10 00:06N 29°46' W 095°06'1 7.3
2017-Nov-09 23:54N 29°47' W 095°05'  
Track history (hours):
 
Tides and Currents Weather Stations Pressure Air Temp Water Temp Dewpoint Dewpoint Depression Visibility Wind Speed Wind Dir Waves Ship Positions

MiSS Sarah

Owner: Higman Barge Lines, Inc, Orange, TX. More information available from US FCC via Universal Licensing System and Coast Guard Vessel Documentation Center.

Last reported at 2017-Nov-19 21:02 UTC. Time now 2017-Nov-21 13:42 UTC.
Position N 29°46' W 095°05'.

Length 24 m; draft 9 m.

Type: Towing. MMSI: 367419040.

Date/timePositionNaut miles runAvg speedWind from/ knotsBaromVisibWave heightAir tempDewpointWater temp
2017-Nov-19 21:02N 29°46' W 095°05'0 4.4
2017-Nov-19 21:00N 29°46' W 095°05'5 1.7
2017-Nov-19 17:53N 29°45' W 095°11'2 4.9
2017-Nov-19 17:28N 29°44' W 095°09'3 6.2
2017-Nov-19 16:54N 29°46' W 095°05'0 0.4
2017-Nov-19 16:25N 29°46' W 095°05'0 0.6
2017-Nov-19 15:55N 29°46' W 095°05'2 0.1
2017-Nov-18 15:31N 29°44' W 095°07'0 7.1
2017-Nov-18 15:30N 29°44' W 095°07'3 1.2
2017-Nov-18 13:04N 29°47' W 095°05'0 0.7
2017-Nov-18 12:54N 29°46' W 095°05'0 0.0
2017-Nov-18 01:37N 29°46' W 095°05'0 0.1
2017-Nov-18 01:14N 29°46' W 095°05'0 0.0
2017-Nov-18 01:00N 29°46' W 095°05'0 0.0
2017-Nov-18 00:29N 29°46' W 095°05'0 0.0
2017-Nov-17 23:55N 29°46' W 095°05'0 0.0
2017-Nov-17 23:28N 29°46' W 095°05'0 0.0
2017-Nov-17 22:51N 29°46' W 095°05'0 0.0
2017-Nov-17 22:29N 29°46' W 095°05'0 0.0
2017-Nov-17 21:59N 29°46' W 095°05'0 0.0
2017-Nov-17 21:27N 29°46' W 095°05'0 0.0
2017-Nov-17 20:48N 29°46' W 095°05'0 0.0
2017-Nov-17 20:22N 29°46' W 095°05'0 0.0
2017-Nov-17 20:00N 29°46' W 095°05'0 0.0
2017-Nov-17 19:19N 29°46' W 095°05'0 0.0
2017-Nov-17 18:46N 29°46' W 095°05'0 0.1
2017-Nov-17 17:48N 29°47' W 095°05'0 0.0
2017-Nov-17 17:28N 29°47' W 095°05'0 0.3
2017-Nov-17 17:00N 29°46' W 095°05'0 0.2
2017-Nov-17 16:28N 29°47' W 095°05'0 0.0
2017-Nov-17 15:59N 29°47' W 095°05'0 0.0
2017-Nov-17 15:30N 29°47' W 095°05'0 0.0
2017-Nov-17 14:58N 29°47' W 095°05'0 0.0
2017-Nov-17 14:23N 29°47' W 095°05'0 0.0
2017-Nov-17 13:58N 29°47' W 095°05'0 0.0
2017-Nov-17 13:28N 29°47' W 095°05'0 0.0
2017-Nov-17 12:57N 29°47' W 095°05'0 0.0
2017-Nov-17 12:06N 29°47' W 095°05'0 0.0
2017-Nov-17 11:59N 29°47' W 095°05'0 0.0
2017-Nov-17 11:29N 29°47' W 095°05'0 0.0
2017-Nov-17 10:55N 29°47' W 095°05'0 0.0
2017-Nov-17 10:23N 29°47' W 095°05'0 0.0
2017-Nov-17 09:59N 29°47' W 095°05'0 0.0
2017-Nov-17 09:30N 29°47' W 095°05'0 0.0
2017-Nov-17 08:58N 29°47' W 095°05'0 0.0
2017-Nov-17 08:30N 29°47' W 095°05'0 0.0
2017-Nov-17 07:53N 29°47' W 095°05'0 0.0
2017-Nov-17 07:26N 29°47' W 095°05'0 0.0
2017-Nov-17 06:59N 29°47' W 095°05'0 0.0
2017-Nov-17 06:26N 29°47' W 095°05'0 0.0
2017-Nov-17 06:00N 29°47' W 095°05'0 0.0
2017-Nov-17 05:27N 29°47' W 095°05'0 0.0
2017-Nov-17 04:58N 29°47' W 095°05'0 0.0
2017-Nov-17 04:29N 29°47' W 095°05'0 0.0
2017-Nov-17 03:57N 29°47' W 095°05'0 0.0
2017-Nov-17 03:28N 29°47' W 095°05'0 0.0
2017-Nov-17 02:59N 29°47' W 095°05'0 0.0
2017-Nov-17 02:20N 29°47' W 095°05'0 0.0
2017-Nov-17 01:39N 29°47' W 095°05'0 0.0
2017-Nov-17 01:29N 29°47' W 095°05'0 0.1
2017-Nov-17 01:00N 29°47' W 095°05'0 0.0
2017-Nov-17 00:29N 29°47' W 095°05'0 0.0
2017-Nov-17 00:00N 29°47' W 095°05'0 0.0
2017-Nov-16 23:30N 29°47' W 095°05'0 0.0
2017-Nov-16 22:57N 29°47' W 095°05'0 0.0
2017-Nov-16 22:30N 29°47' W 095°05'0 0.0
2017-Nov-16 22:00N 29°47' W 095°05'0 0.0
2017-Nov-16 21:28N 29°47' W 095°05'0 0.0
2017-Nov-16 20:54N 29°47' W 095°05'0 0.0
2017-Nov-16 20:30N 29°47' W 095°05'0 0.0
2017-Nov-16 20:00N 29°47' W 095°05'0 0.0
2017-Nov-16 19:30N 29°47' W 095°05'0 0.0
2017-Nov-16 19:00N 29°47' W 095°05'0 0.0
2017-Nov-16 18:28N 29°47' W 095°05'0 0.0
2017-Nov-16 18:00N 29°47' W 095°05'0 0.0
2017-Nov-16 17:30N 29°47' W 095°05'0 0.0
2017-Nov-16 17:00N 29°47' W 095°05'0 0.0
2017-Nov-16 16:30N 29°47' W 095°05'0 0.0
2017-Nov-16 15:58N 29°47' W 095°05'0 0.0
2017-Nov-16 15:29N 29°47' W 095°05'0 0.0
2017-Nov-16 15:00N 29°47' W 095°05'0 0.0
2017-Nov-16 14:30N 29°47' W 095°05'0 0.0
2017-Nov-16 14:00N 29°47' W 095°05'0 0.0
2017-Nov-16 13:30N 29°47' W 095°05'0 0.0
2017-Nov-16 13:00N 29°47' W 095°05'0 0.0
2017-Nov-16 12:30N 29°47' W 095°05'0 0.0
2017-Nov-16 12:00N 29°47' W 095°05'0 0.0
2017-Nov-16 11:30N 29°47' W 095°05'0 0.0
2017-Nov-16 11:00N 29°47' W 095°05'0 0.0
2017-Nov-16 10:30N 29°47' W 095°05'0 0.0
2017-Nov-16 10:00N 29°47' W 095°05'0 0.0
2017-Nov-16 09:30N 29°47' W 095°05'0 0.0
2017-Nov-16 09:00N 29°47' W 095°05'0 0.0
2017-Nov-16 08:30N 29°47' W 095°05'0 0.0
2017-Nov-16 08:00N 29°47' W 095°05'0 0.0
2017-Nov-16 07:30N 29°47' W 095°05'0 0.0
2017-Nov-16 06:59N 29°47' W 095°05'0 0.0
2017-Nov-16 06:30N 29°47' W 095°05'0 0.0
2017-Nov-16 06:00N 29°47' W 095°05'0 0.0
2017-Nov-16 05:30N 29°47' W 095°05'0 0.0
2017-Nov-16 05:00N 29°47' W 095°05'0 0.0
2017-Nov-16 04:30N 29°47' W 095°05'0 0.0
2017-Nov-16 04:00N 29°47' W 095°05'0 0.0
2017-Nov-16 03:30N 29°47' W 095°05'0 0.0
2017-Nov-16 03:00N 29°47' W 095°05'0 0.0
2017-Nov-16 02:30N 29°47' W 095°05'0 0.0
2017-Nov-16 02:00N 29°47' W 095°05'0 0.0
2017-Nov-16 01:30N 29°47' W 095°05'0 0.0
2017-Nov-16 01:00N 29°47' W 095°05'0 0.0
2017-Nov-16 00:30N 29°47' W 095°05'0 0.0
2017-Nov-16 00:00N 29°47' W 095°05'0 0.0
2017-Nov-15 23:30N 29°47' W 095°05'0 0.0
2017-Nov-15 23:00N 29°47' W 095°05'0 0.0
2017-Nov-15 22:30N 29°47' W 095°05'0 0.0
2017-Nov-15 22:00N 29°47' W 095°05'0 0.0
2017-Nov-15 21:30N 29°47' W 095°05'0 0.0
2017-Nov-15 20:57N 29°47' W 095°05'0 0.0
2017-Nov-15 20:30N 29°47' W 095°05'0 0.0
2017-Nov-15 19:55N 29°47' W 095°05'0 0.0
2017-Nov-15 19:29N 29°47' W 095°05'0 0.0
2017-Nov-15 19:00N 29°47' W 095°05'0 0.0
2017-Nov-15 18:16N 29°47' W 095°05'0 0.0
2017-Nov-15 18:00N 29°47' W 095°05'0 0.0
2017-Nov-15 17:30N 29°47' W 095°05'0 0.0
2017-Nov-15 17:00N 29°47' W 095°05'0 0.0
2017-Nov-15 16:30N 29°47' W 095°05'0 0.0
2017-Nov-15 16:00N 29°47' W 095°05'0 0.0
2017-Nov-15 15:30N 29°47' W 095°05'0 0.0
2017-Nov-15 15:00N 29°47' W 095°05'0 0.0
2017-Nov-15 14:30N 29°47' W 095°05'0 0.0
2017-Nov-15 14:00N 29°47' W 095°05'0 0.0
2017-Nov-15 13:29N 29°47' W 095°05'0 0.0
2017-Nov-15 13:00N 29°47' W 095°05'0 0.0
2017-Nov-15 12:30N 29°47' W 095°05'0 0.0
2017-Nov-15 12:00N 29°47' W 095°05'0 0.0
2017-Nov-15 11:30N 29°47' W 095°05'0 0.0
2017-Nov-15 11:00N 29°47' W 095°05'0 0.0
2017-Nov-15 10:30N 29°47' W 095°05'0 0.0
2017-Nov-15 10:00N 29°47' W 095°05'0 0.0
2017-Nov-15 09:30N 29°47' W 095°05'0 0.0
2017-Nov-15 09:00N 29°47' W 095°05'0 0.1
2017-Nov-15 08:26N 29°47' W 095°05'2 3.9
2017-Nov-15 08:00N 29°45' W 095°06'3 5.4
2017-Nov-15 07:30N 29°44' W 095°09'3 5.2
2017-Nov-15 07:00N 29°45' W 095°12'2 4.5
2017-Nov-15 06:31N 29°44' W 095°14'0 0.1
2017-Nov-15 06:00N 29°44' W 095°14'0 0.0
2017-Nov-15 05:19N 29°44' W 095°14'0 0.0
2017-Nov-15 04:59N 29°44' W 095°14'0 0.0
2017-Nov-15 04:30N 29°44' W 095°14'0 0.0
2017-Nov-15 04:00N 29°44' W 095°14'0 0.0
2017-Nov-15 03:30N 29°44' W 095°14'0 0.0
2017-Nov-15 03:00N 29°44' W 095°14'0 0.0
2017-Nov-15 02:30N 29°44' W 095°14'0 0.0
2017-Nov-15 02:00N 29°44' W 095°14'0 0.0
2017-Nov-15 01:29N 29°44' W 095°14'0 0.0
2017-Nov-15 01:00N 29°44' W 095°14'0 0.0
2017-Nov-15 00:20N 29°44' W 095°14'0 0.0
2017-Nov-14 23:57N 29°44' W 095°14'0 0.0
2017-Nov-14 23:29N 29°44' W 095°14'0 0.0
2017-Nov-14 15:09N 29°44' W 095°14'0 0.0
2017-Nov-14 14:45N 29°44' W 095°14'0 0.0
2017-Nov-14 14:24N 29°44' W 095°14'0 0.0
2017-Nov-14 13:47N 29°44' W 095°14'0 0.0
2017-Nov-14 13:30N 29°44' W 095°14'0 0.0
2017-Nov-14 13:00N 29°44' W 095°14'0 0.0
2017-Nov-14 12:30N 29°44' W 095°14'0 0.0
2017-Nov-14 12:00N 29°44' W 095°14'0 0.0
2017-Nov-14 11:30N 29°44' W 095°14'0 0.0
2017-Nov-14 11:00N 29°44' W 095°14'0 0.0
2017-Nov-14 10:30N 29°44' W 095°14'0 0.0
2017-Nov-14 10:00N 29°44' W 095°14'0 0.0
2017-Nov-14 09:30N 29°44' W 095°14'0 0.0
2017-Nov-14 09:00N 29°44' W 095°14'0 0.0
2017-Nov-14 08:30N 29°44' W 095°14'0 0.0
2017-Nov-14 08:00N 29°44' W 095°14'0 0.0
2017-Nov-14 07:30N 29°44' W 095°14'0 0.0
2017-Nov-14 07:00N 29°44' W 095°14'0 0.0
2017-Nov-14 06:30N 29°44' W 095°14'0 0.0
2017-Nov-14 06:00N 29°44' W 095°14'0 0.0
2017-Nov-14 05:30N 29°44' W 095°14'0 0.0
2017-Nov-14 05:00N 29°44' W 095°14'0 0.0
2017-Nov-14 04:30N 29°44' W 095°14'0 0.0
2017-Nov-14 04:01N 29°44' W 095°14'0 0.0
2017-Nov-14 03:30N 29°44' W 095°14'0 0.0
2017-Nov-14 03:00N 29°44' W 095°14'1 1.5
2017-Nov-14 02:30N 29°43' W 095°13'2 4.5
2017-Nov-14 01:58N 29°45' W 095°11'2 4.6
2017-Nov-14 01:30N 29°44' W 095°08'3 4.6
2017-Nov-14 00:53N 29°46' W 095°06'2 1.4
2017-Nov-13 23:47N 29°47' W 095°06'0 0.0
2017-Nov-13 01:59N 29°47' W 095°05'  
2017-Nov-10 19:14N 29°47' W 095°05'3 2.6
2017-Nov-10 18:17N 29°45' W 095°06'1 1.8
2017-Nov-10 17:28N 29°44' W 095°08'3 6.1
2017-Nov-10 16:59N 29°46' W 095°05'2 3.1
2017-Nov-10 16:30N 29°45' W 095°07'0 0.0
2017-Nov-10 15:59N 29°45' W 095°07'0 0.0
2017-Nov-10 15:28N 29°45' W 095°07'0 0.0
2017-Nov-10 14:52N 29°45' W 095°07'0 0.0
2017-Nov-10 14:19N 29°45' W 095°07'0 0.0
2017-Nov-10 13:47N 29°45' W 095°07'0 0.0
2017-Nov-10 12:19N 29°45' W 095°06'0 0.0
2017-Nov-10 06:59N 29°45' W 095°06'1 1.9
2017-Nov-10 06:25N 29°45' W 095°06'3 7.0
2017-Nov-10 06:00N 29°44' W 095°09'1 2.2
2017-Nov-10 05:29N 29°45' W 095°10'1 1.9
2017-Nov-10 05:00N 29°44' W 095°09'2 3.9
2017-Nov-10 04:30N 29°44' W 095°07'3 4.8
2017-Nov-10 03:58N 29°46' W 095°05'0 0.1
2017-Nov-10 03:30N 29°46' W 095°05'1 0.3
2017-Nov-10 00:06N 29°46' W 095°06'1 7.3
2017-Nov-09 23:54N 29°47' W 095°05'  

Dump ship's entire track history